AirNav   Air Wisconsin Up To $57,000 Bonus
 
 510 users online  

7M6 Paris Municipal Airport
Paris (Subiaco), Arkansas, USA

GOING TO PARIS (SUBIACO)?


FAA INFORMATION EFFECTIVE 31 DECEMBER 2020

Location

FAA Identifier: 7M6
Lat/Long: 35-17-56.8150N 093-40-53.8100W
35-17.946917N 093-40.896833W
35.2991153,-93.6816139
(estimated)
Elevation: 430 ft. / 131 m (estimated)
Variation: 05E (1985)
From city: 2 miles E of central business district of the associated city
Time zone: UTC -6 (UTC -5 during Daylight Saving Time)
Zip code: 72855

Airport Operations

Airport use: Open to the public
Control tower: no
ARTCC: MEMPHIS CENTER
FSS: JONESBORO FLIGHT SERVICE STATION
NOTAMs facility: JBR (NOTAM-D service available)
Attendance: UNATNDD
Wind indicator: lighted
Segmented circle: no
Lights: ACTVT MIRL RWY 03/21 - CTAF
Beacon: white-green (lighted land airport)
BCN IS ON FM SS TO 2100 AND FM 0600 TO SR. OTR TIMES, ACTVT BCN USING CTAF BTN 2100 - 0600.

Airport Communications

CTAF: 122.9

Nearby radio navigation aids

VOR radial/distance  VOR name  Freq  Var
FSMr094/29.4FORT SMITH VORTAC110.4007E

 
NDB name  Hdg/Dist  Freq  Var  ID
RUSSELLVILLE272/28.937903ERUE .-. ..- .

Airport Services

Fuel available: 100LL
SELF SVC FUEL AVBL 24 HRS WITH CREDIT CARD.
Parking: hangars and tiedowns
Airframe service: MAJOR
Powerplant service: MAJOR
Bottled oxygen: NONE
Bulk oxygen: NONE

Runway Information

Runway 3/21

Dimensions: 2710 x 60 ft. / 826 x 18 m
Surface: asphalt, in fair condition
Weight bearing capacity: 
Single wheel: 10.0
Runway edge lights: medium intensity
RUNWAY 3  RUNWAY 21
Latitude: 35-17.773117N35-18.120717N
Longitude: 093-41.067967W093-40.725683W
Elevation: 422.0 ft.403.0 ft.
Traffic pattern: leftleft
Runway heading: 034 magnetic, 039 true214 magnetic, 219 true
Markings: basic, in fair conditionbasic, in fair condition
Visual slope indicator: 2-light PAPI on left (3.00 degrees glide path)
Obstructions: 15 ft. road, 450 ft. from runway, 16:1 slope to clear23 ft. tree, 300 ft. from runway, 140 ft. left of centerline, 4:1 slope to clear

Airport Ownership and Management from official FAA records

Ownership: Publicly-owned
Owner: CITY OF PARIS
PO BOX 271
PARIS, AR 72855
Phone 479-963-2450
Manager: JOHN MINDEN
P.O. BOX 654
PARIS, AR 72855
Phone 479-963-1777
CHAIRMAN AIRPORT COMMISSION.

Airport Operational Statistics

Aircraft based on the field: 5
Single engine airplanes: 4
Helicopters: 1
    
Aircraft operations: avg 63/week *
91% local general aviation
9% transient general aviation
* for 12-month period ending 31 July 2018

Additional Remarks

NUMEROUS AGRICULTURAL OPERATIONS FEB-OCT BLO 500 FT AGL.
FOR CD CTC MEMPHIS ARTCC AT 901-368-8453.

Instrument Procedures

There are no published instrument procedures at 7M6.

Some nearby airports with instrument procedures:

7M5 - Ozark-Franklin County Airport (15 nm NW)
H35 - Clarksville Municipal Airport (16 nm NE)
32A - Danville Municipal Airport (18 nm SE)
KRUE - Russellville Regional Airport (29 nm E)
KFSM - Fort Smith Regional Airport (34 nm W)
 
Loc | Ops | Rwys | IFR | FBO | Links
Com | Nav | Svcs | Stats | Notes
Area around 7M6 (Paris Municipal Airport)
 
Road maps at: MapQuest Bing Google
 
Aerial photo
WARNING: Photo may not be current or correct
Aerial photo of 7M6 (Paris Municipal Airport)
Photo courtesy of the Arkansas Department of Aeronautics
Taken in the Spring of 2007

Do you have a better or more recent aerial photo of Paris Municipal Airport that you would like to share? If so, please send us your photo.

 
Sectional chart

 
Airport distance calculator
Flying to Paris Municipal Airport? Find the distance to fly.

From to 7M6

Sunrise and sunset
Times for 23-Jan-2021
 Local
(UTC-6)
 Zulu
(UTC)
Morning civil twilight06:5412:54
Sunrise07:2113:21
Sunset17:3223:32
Evening civil twilight18:0024:00

Current date and time
Zulu (UTC)  23-Jan-2021 06:20:20
Local (UTC-6)  23-Jan-2021 00:20:20
 
METAR
KRUE 
29nm E 
230553Z AUTO 08006KT 10SM CLR 04/M03 A3020 RMK AO2 SLP222 T00441028 10089 20044 401390011 51017
KFSM 
34nm W 
230553Z AUTO 08006KT 10SM CLR 03/M02 A3017 RMK AO2 SLP217 T00331022 10100 20033 401440017 52012
KMWT 
45nm S 
230553Z AUTO VRB03KT 10SM BKN080 04/M01 A3012 RMK AO2 SLP204 T00441011 10083 20039 401390039 50008
KRKR 
49nm W 
230555Z AUTO 00000KT 10SM CLR 02/00 A3016 RMK AO2
KFYV 
49nm NW 
230553Z AUTO 00000KT 10SM CLR 01/M06 A3017 RMK AO2 SLP219 T00111056 10072 20006 401110006 51007
TAF
KFSM 
34nm W 
230520Z 2306/2406 08007KT P6SM FEW100 FM231100 09008KT P6SM BKN040 FM231700 09009G17KT P6SM BKN025 FM240300 09007KT P6SM OVC015 PROB30 2403/2406 4SM -SHRA BKN010
NOTAMs
Click for the latest NOTAMs
NOTAMs are issued by the DoD/FAA and will open in a separate window not controlled by AirNav.

 

 
 

FBO, Fuel Providers, and Aircraft Ground Support

  
 Business Name 
 
 Contact 
 
 Services / Description 
 
Fuel Prices
 
Comments
  
Paris Municipal Airport 479-963-2450
no information available

If you are affiliated with Paris Municipal Airport and would like to show here your services, contact info, web link, logo, and more, click here
100LL
SS $4.15 
 Updated 20-Aug-2018
 
   write
SS=Self service
Update Fuel Prices
 

Would you like to see your business listed on this page?

 If your business provides an interesting product or service to pilots, flight crews, aircraft, or users of the Paris Municipal Airport, you should consider listing it here.  To start the listing process, click on the button below
 
Add a business
 

Other Pages about Paris Municipal Airport

Update a link
 
Copyright © AirNav, LLC. All rights reserved. Privacy Policy  Contact